Flight Track Log - Related Links

Times and Time Zones

All times are in EDT time to prevent confusion due to time zone crossing. See the KAP417 flight status page for this flight to view local times or setup timezone preferences in your user account.

Time Position Orientation Groundspeed Altitude Reporting Facility
EDT Latitude Longitude Course Direction KTS MPH feet Rate Location/Type
Tue 03:15:22 PM 42.3833 -71.0167 216° Southwest 108 124 500  Level KA90
Tue 03:16:11 PM 42.3667 -71.0333 216° Southwest 127 146 1,400 927 Climbing KA90
Tue 03:17:12 PM 42.3167 -71.0333 180° South 142 163 2,200 650 Climbing KA90
Tue 03:18:11 PM 42.2833 -71.0333 180° South 141 162 2,700 496 Climbing KA90
Tue 03:19:13 PM 42.2500 -71.0000 143° Southeast 147 169 3,200 450 Climbing KA90
Tue 03:20:11 PM 42.2167 -70.9667 143° Southeast 156 180 3,600 183 Climbing KA90
Tue 03:21:24 PM 42.1667 -70.9333 154° Southeast 175 201 3,600  Level KA90
Tue 03:23:00 PM 42.1125 -70.8807 144° Southeast  Level Estimated
Tue 03:30:00 PM 41.8755 -70.6517 144° Southeast  Level Estimated
Tue 03:31:00 PM 41.8416 -70.6191 144° Southeast  Level Estimated
Tue 03:32:00 PM 41.8077 -70.5865 144° Southeast  Level Estimated
Tue 03:33:00 PM 41.7738 -70.5540 144° Southeast  Level Estimated
Tue 03:34:00 PM 41.7398 -70.5216 144° Southeast  Level Estimated
Tue 03:35:00 PM 41.7059 -70.4891 144° Southeast  Level Estimated
Tue 03:36:00 PM 41.6719 -70.4567 145° Southeast  Level Estimated
Tue 03:37:00 PM 41.6380 -70.4243 145° Southeast  Level Estimated
Tue 03:38:00 PM 41.6040 -70.3920 145° Southeast  Level Estimated
Tue 03:39:00 PM 41.5700 -70.3597 145° Southeast  Level Estimated
Tue 03:40:00 PM 41.5360 -70.3274 145° Southeast  Level Estimated
Tue 03:41:00 PM 41.5021 -70.2951 145° Southeast  Level Estimated
Tue 03:42:00 PM 41.4681 -70.2629 145° Southeast  Level Estimated
Tue 03:43:00 PM 41.4341 -70.2308 145° Southeast  Level Estimated
Tue 03:44:00 PM 41.4000 -70.1986 145° Southeast  Level Estimated
Tue 03:45:00 PM 41.3660 -70.1665 145° Southeast  Level Estimated
Tue 03:46:00 PM 41.3320 -70.1344 145° Southeast  Level Estimated
Tue 03:47:00 PM 41.2979 -70.1024 145° Southeast  Level Estimated
Tue 03:48:00 PM 41.2639 -70.0704 145° Southeast  Level Estimated
Tue 03:49:00 PM 41.2531 -70.0603 145° Southeast  Level Estimated
Tue 03:50:00 PM 41.2531 -70.0603 72° East  Level Estimated
Tue 03:51:00 PM 41.2531 -70.0603 72° East  Level Estimated
Tue 03:52:00 PM 41.2531 -70.0603 72° East  Level Estimated
Tue 03:53:00 PM 41.2531 -70.0603 72° East  Level Estimated
Tue 03:54:00 PM 41.2531 -70.0603 72° East  Level Estimated
Tue 03:55:00 PM 41.2531 -70.0603 72° East  Level Estimated
Tue 03:56:00 PM 41.2531 -70.0603 72° East  Level Estimated
Tue 03:57:00 PM 41.2531 -70.0603 72° East  Level Estimated
Tue 03:58:00 PM 41.2531 -70.0603 72° East  Level Estimated
Tue 03:59:00 PM 41.2531 -70.0603 72° East  Level Estimated
Tue 04:00:00 PM 41.2531 -70.0603 72° East  Level Estimated
Tue 04:01:00 PM 41.2531 -70.0603 72° East  Level Estimated
Tue 04:02:00 PM 41.2531 -70.0603 72° East  Level Estimated
Tue 04:03:00 PM 41.2531 -70.0603 72° East  Level Estimated
Tue 04:04:00 PM 41.2531 -70.0603 72° East  Level Estimated
Tue 04:05:00 PM 41.2531 -70.0603 72° East  Level Estimated
Tue 04:06:00 PM 41.2531 -70.0603 72° East  Level Estimated
Tue 04:07:00 PM 41.2531 -70.0603 72° East  Level Estimated
Tue 04:08:00 PM 41.2531 -70.0603 72° East  Level Estimated

Login

Don't have an account? Register now (free) for customized features, flight alerts, and more!